sensor_id;sensor_type;location;lat;lon;timestamp;pressure;altitude;pressure_sealevel;temperature;humidity
34328;BME280;20588;48.840;10.064;2022-12-08T00:00:52;96065.38;;;0.53;nan
34328;BME280;20588;48.840;10.064;2022-12-08T00:03:19;96063.16;;;0.50;nan
34328;BME280;20588;48.840;10.064;2022-12-08T00:05:46;96068.06;;;0.43;nan
34328;BME280;20588;48.840;10.064;2022-12-08T00:08:31;96068.69;;;0.37;nan
34328;BME280;20588;48.840;10.064;2022-12-08T00:11:17;96069.16;;;0.33;nan
34328;BME280;20588;48.840;10.064;2022-12-08T00:13:43;96068.84;;;0.28;nan
34328;BME280;20588;48.840;10.064;2022-12-08T00:16:10;96062.53;;;0.24;nan
34328;BME280;20588;48.840;10.064;2022-12-08T00:18:37;96055.56;;;0.18;nan
34328;BME280;20588;48.840;10.064;2022-12-08T00:21:03;96058.41;;;0.15;nan
34328;BME280;20588;48.840;10.064;2022-12-08T00:23:29;96062.97;;;0.11;nan
34328;BME280;20588;48.840;10.064;2022-12-08T00:25:55;96058.56;;;0.05;nan
34328;BME280;20588;48.840;10.064;2022-12-08T00:28:21;96057.28;;;0.01;nan
34328;BME280;20588;48.840;10.064;2022-12-08T00:30:47;96059.81;;;-0.07;nan
34328;BME280;20588;48.840;10.064;2022-12-08T00:33:13;96058.84;;;-0.14;nan
34328;BME280;20588;48.840;10.064;2022-12-08T00:35:39;96049.06;;;-0.17;nan
34328;BME280;20588;48.840;10.064;2022-12-08T00:38:06;96049.53;;;-0.22;nan
34328;BME280;20588;48.840;10.064;2022-12-08T00:40:32;96046.50;;;-0.25;nan
34328;BME280;20588;48.840;10.064;2022-12-08T00:42:58;96041.13;;;-0.30;nan
34328;BME280;20588;48.840;10.064;2022-12-08T00:45:24;96046.31;;;-0.32;nan
34328;BME280;20588;48.840;10.064;2022-12-08T00:47:50;96039.84;;;-0.34;nan
34328;BME280;20588;48.840;10.064;2022-12-08T00:50:16;96038.75;;;-0.40;nan
34328;BME280;20588;48.840;10.064;2022-12-08T00:52:42;96034.00;;;-0.43;nan
34328;BME280;20588;48.840;10.064;2022-12-08T00:55:08;96038.72;;;-0.48;nan
34328;BME280;20588;48.840;10.064;2022-12-08T00:57:34;96033.31;;;-0.53;nan
34328;BME280;20588;48.840;10.064;2022-12-08T01:00:00;96036.00;;;-0.54;nan
34328;BME280;20588;48.840;10.064;2022-12-08T01:02:26;96034.09;;;-0.60;nan
34328;BME280;20588;48.840;10.064;2022-12-08T01:04:52;96030.31;;;-0.64;nan
34328;BME280;20588;48.840;10.064;2022-12-08T01:07:19;96029.66;;;-0.66;nan
34328;BME280;20588;48.840;10.064;2022-12-08T01:09:45;96029.34;;;-0.71;nan
34328;BME280;20588;48.840;10.064;2022-12-08T01:12:11;96030.41;;;-0.74;nan
34328;BME280;20588;48.840;10.064;2022-12-08T01:14:37;96032.94;;;-0.74;nan
34328;BME280;20588;48.840;10.064;2022-12-08T01:17:03;96029.31;;;-0.79;nan
34328;BME280;20588;48.840;10.064;2022-12-08T01:19:29;96030.69;;;-0.85;nan
34328;BME280;20588;48.840;10.064;2022-12-08T01:21:55;96028.63;;;-0.89;nan
34328;BME280;20588;48.840;10.064;2022-12-08T01:24:21;96025.78;;;-0.94;nan
34328;BME280;20588;48.840;10.064;2022-12-08T01:26:49;96033.34;;;-0.94;nan
34328;BME280;20588;48.840;10.064;2022-12-08T01:29:15;96029.53;;;-0.98;nan
34328;BME280;20588;48.840;10.064;2022-12-08T01:31:41;96030.47;;;-0.99;nan
34328;BME280;20588;48.840;10.064;2022-12-08T01:34:10;96030.47;;;-0.99;nan
34328;BME280;20588;48.840;10.064;2022-12-08T01:36:37;96031.44;;;-1.00;nan
34328;BME280;20588;48.840;10.064;2022-12-08T01:39:05;96032.34;;;-1.01;nan
34328;BME280;20588;48.840;10.064;2022-12-08T01:41:34;96028.41;;;-1.04;nan
34328;BME280;20588;48.840;10.064;2022-12-08T01:46:31;96024.78;;;-1.01;nan
34328;BME280;20588;48.840;10.064;2022-12-08T01:49:16;96022.88;;;-1.07;nan
34328;BME280;20588;48.840;10.064;2022-12-08T01:54:23;96021.53;;;-1.19;nan
34328;BME280;20588;48.840;10.064;2022-12-08T01:59:36;96024.03;;;-1.27;nan
34328;BME280;20588;48.840;10.064;2022-12-08T02:02:03;96031.91;;;-1.30;nan
34328;BME280;20588;48.840;10.064;2022-12-08T02:04:29;96018.66;;;-1.32;nan
34328;BME280;20588;48.840;10.064;2022-12-08T02:06:55;96019.75;;;-1.35;nan
34328;BME280;20588;48.840;10.064;2022-12-08T02:09:21;96019.91;;;-1.36;nan
34328;BME280;20588;48.840;10.064;2022-12-08T02:11:48;96013.56;;;-1.40;nan
34328;BME280;20588;48.840;10.064;2022-12-08T02:14:15;96013.84;;;-1.43;nan
34328;BME280;20588;48.840;10.064;2022-12-08T02:17:20;96006.06;;;-1.50;nan
34328;BME280;20588;48.840;10.064;2022-12-08T02:20:07;96006.53;;;-1.54;nan
34328;BME280;20588;48.840;10.064;2022-12-08T02:23:00;96006.81;;;-1.57;nan
34328;BME280;20588;48.840;10.064;2022-12-08T02:25:54;95998.47;;;-1.58;nan
34328;BME280;20588;48.840;10.064;2022-12-08T02:28:41;96003.31;;;-1.64;nan
34328;BME280;20588;48.840;10.064;2022-12-08T02:39:27;95988.09;;;-1.80;nan
34328;BME280;20588;48.840;10.064;2022-12-08T02:42:17;95987.28;;;-1.81;nan
34328;BME280;20588;48.840;10.064;2022-12-08T02:45:03;95972.47;;;-1.84;nan
34328;BME280;20588;48.840;10.064;2022-12-08T02:47:32;95979.88;;;-1.83;nan
34328;BME280;20588;48.840;10.064;2022-12-08T02:49:59;95979.72;;;-1.81;nan
34328;BME280;20588;48.840;10.064;2022-12-08T02:55:02;95971.59;;;-1.75;nan
34328;BME280;20588;48.840;10.064;2022-12-08T02:58:22;95973.00;;;-1.72;nan
34328;BME280;20588;48.840;10.064;2022-12-08T03:00:58;95970.00;;;-1.76;nan
34328;BME280;20588;48.840;10.064;2022-12-08T03:03:50;95971.06;;;-1.78;nan
34328;BME280;20588;48.840;10.064;2022-12-08T03:09:10;95963.50;;;-1.78;nan
34328;BME280;20588;48.840;10.064;2022-12-08T03:11:41;95962.75;;;-1.79;nan
34328;BME280;20588;48.840;10.064;2022-12-08T03:14:12;95960.84;;;-1.77;nan
34328;BME280;20588;48.840;10.064;2022-12-08T03:16:40;95959.13;;;-1.76;nan
34328;BME280;20588;48.840;10.064;2022-12-08T03:21:45;95810.06;;;-2.66;nan
34328;BME280;20588;48.840;10.064;2022-12-08T03:24:14;95960.31;;;-1.63;nan
34328;BME280;20588;48.840;10.064;2022-12-08T03:26:45;95963.97;;;-1.57;nan
34328;BME280;20588;48.840;10.064;2022-12-08T03:29:14;95954.22;;;-1.52;nan
34328;BME280;20588;48.840;10.064;2022-12-08T03:31:48;95956.13;;;-1.46;nan
34328;BME280;20588;48.840;10.064;2022-12-08T03:34:16;95955.53;;;-1.40;nan
34328;BME280;20588;48.840;10.064;2022-12-08T03:36:43;95949.91;;;-1.34;nan
34328;BME280;20588;48.840;10.064;2022-12-08T03:39:10;95942.81;;;-1.31;nan
34328;BME280;20588;48.840;10.064;2022-12-08T03:41:36;95939.19;;;-1.28;nan
34328;BME280;20588;48.840;10.064;2022-12-08T03:44:02;95937.31;;;-1.26;nan
34328;BME280;20588;48.840;10.064;2022-12-08T03:46:29;95928.50;;;-1.22;nan
34328;BME280;20588;48.840;10.064;2022-12-08T03:48:56;95929.28;;;-1.22;nan
34328;BME280;20588;48.840;10.064;2022-12-08T03:51:23;95924.41;;;-1.23;nan
34328;BME280;20588;48.840;10.064;2022-12-08T03:53:49;95924.41;;;-1.23;nan
34328;BME280;20588;48.840;10.064;2022-12-08T03:56:22;95927.72;;;-1.23;nan
34328;BME280;20588;48.840;10.064;2022-12-08T03:58:48;95927.72;;;-1.23;nan
34328;BME280;20588;48.840;10.064;2022-12-08T04:01:15;95926.13;;;-1.24;nan
34328;BME280;20588;48.840;10.064;2022-12-08T04:03:41;95923.44;;;-1.22;nan
34328;BME280;20588;48.840;10.064;2022-12-08T04:06:07;95930.09;;;-1.21;nan
34328;BME280;20588;48.840;10.064;2022-12-08T04:08:33;95933.25;;;-1.19;nan
34328;BME280;20588;48.840;10.064;2022-12-08T04:10:59;95925.38;;;-1.16;nan
34328;BME280;20588;48.840;10.064;2022-12-08T04:13:25;95919.25;;;-1.14;nan
34328;BME280;20588;48.840;10.064;2022-12-08T04:15:51;95917.34;;;-1.12;nan
34328;BME280;20588;48.840;10.064;2022-12-08T04:18:17;95913.44;;;-1.06;nan
34328;BME280;20588;48.840;10.064;2022-12-08T04:20:44;95912.47;;;-1.05;nan
34328;BME280;20588;48.840;10.064;2022-12-08T04:23:11;95909.31;;;-1.07;nan
34328;BME280;20588;48.840;10.064;2022-12-08T04:25:37;95909.63;;;-1.10;nan
34328;BME280;20588;48.840;10.064;2022-12-08T04:28:04;95905.53;;;-1.11;nan
34328;BME280;20588;48.840;10.064;2022-12-08T04:30:31;95909.16;;;-1.14;nan
34328;BME280;20588;48.840;10.064;2022-12-08T04:32:57;95909.00;;;-1.12;nan
34328;BME280;20588;48.840;10.064;2022-12-08T04:35:23;95910.25;;;-1.08;nan
34328;BME280;20588;48.840;10.064;2022-12-08T04:37:49;95915.94;;;-1.06;nan
34328;BME280;20588;48.840;10.064;2022-12-08T04:40:15;95914.84;;;-1.04;nan
34328;BME280;20588;48.840;10.064;2022-12-08T04:42:41;95916.91;;;-0.99;nan
34328;BME280;20588;48.840;10.064;2022-12-08T04:45:08;95915.66;;;-0.95;nan
34328;BME280;20588;48.840;10.064;2022-12-08T04:47:34;95911.25;;;-0.93;nan
34328;BME280;20588;48.840;10.064;2022-12-08T04:50:00;95912.66;;;-0.91;nan
34328;BME280;20588;48.840;10.064;2022-12-08T04:52:26;95912.50;;;-0.89;nan
34328;BME280;20588;48.840;10.064;2022-12-08T04:54:52;95913.31;;;-0.89;nan
34328;BME280;20588;48.840;10.064;2022-12-08T04:57:18;95917.88;;;-0.84;nan
34328;BME280;20588;48.840;10.064;2022-12-08T04:59:44;95914.09;;;-0.80;nan
34328;BME280;20588;48.840;10.064;2022-12-08T05:02:10;95910.94;;;-0.74;nan
34328;BME280;20588;48.840;10.064;2022-12-08T05:04:38;95900.84;;;-0.74;nan
34328;BME280;20588;48.840;10.064;2022-12-08T05:07:04;95896.94;;;-0.69;nan
34328;BME280;20588;48.840;10.064;2022-12-08T05:09:30;95902.13;;;-0.70;nan
34328;BME280;20588;48.840;10.064;2022-12-08T05:11:56;95896.78;;;-0.67;nan
34328;BME280;20588;48.840;10.064;2022-12-08T05:14:22;95893.13;;;-0.65;nan
34328;BME280;20588;48.840;10.064;2022-12-08T05:16:48;95890.78;;;-0.66;nan
34328;BME280;20588;48.840;10.064;2022-12-08T05:19:16;95892.38;;;-0.65;nan
34328;BME280;20588;48.840;10.064;2022-12-08T05:21:42;95884.00;;;-0.66;nan
34328;BME280;20588;48.840;10.064;2022-12-08T05:24:08;95896.31;;;-0.63;nan
34328;BME280;20588;48.840;10.064;2022-12-08T05:26:34;95894.56;;;-0.62;nan
34328;BME280;20588;48.840;10.064;2022-12-08T05:29:00;95891.75;;;-0.59;nan
34328;BME280;20588;48.840;10.064;2022-12-08T05:31:27;95883.84;;;-0.56;nan
34328;BME280;20588;48.840;10.064;2022-12-08T05:33:53;95882.88;;;-0.55;nan
34328;BME280;20588;48.840;10.064;2022-12-08T05:36:19;95890.31;;;-0.54;nan
34328;BME280;20588;48.840;10.064;2022-12-08T05:38:46;95888.88;;;-0.48;nan
34328;BME280;20588;48.840;10.064;2022-12-08T05:41:17;95891.72;;;-0.43;nan
34328;BME280;20588;48.840;10.064;2022-12-08T05:43:45;95880.50;;;-0.41;nan
34328;BME280;20588;48.840;10.064;2022-12-08T05:46:11;95887.94;;;-0.39;nan
34328;BME280;20588;48.840;10.064;2022-12-08T05:48:37;95884.47;;;-0.38;nan
34328;BME280;20588;48.840;10.064;2022-12-08T05:51:05;95878.47;;;-0.37;nan
34328;BME280;20588;48.840;10.064;2022-12-08T05:53:32;95877.66;;;-0.38;nan
34328;BME280;20588;48.840;10.064;2022-12-08T05:55:58;95878.78;;;-0.40;nan
34328;BME280;20588;48.840;10.064;2022-12-08T05:58:24;95878.47;;;-0.45;nan
34328;BME280;20588;48.840;10.064;2022-12-08T06:00:50;95878.31;;;-0.52;nan
34328;BME280;20588;48.840;10.064;2022-12-08T06:03:17;95879.88;;;-0.59;nan
34328;BME280;20588;48.840;10.064;2022-12-08T06:05:45;95873.88;;;-0.66;nan
34328;BME280;20588;48.840;10.064;2022-12-08T06:08:12;95882.91;;;-0.71;nan
34328;BME280;20588;48.840;10.064;2022-12-08T06:10:43;95888.53;;;-0.77;nan
34328;BME280;20588;48.840;10.064;2022-12-08T06:13:09;95880.81;;;-0.84;nan
34328;BME280;20588;48.840;10.064;2022-12-08T06:15:36;95885.53;;;-0.89;nan
34328;BME280;20588;48.840;10.064;2022-12-08T06:18:03;95880.94;;;-0.93;nan
34328;BME280;20588;48.840;10.064;2022-12-08T06:20:29;95883.13;;;-0.98;nan
34328;BME280;20588;48.840;10.064;2022-12-08T06:22:55;95881.09;;;-1.03;nan
34328;BME280;20588;48.840;10.064;2022-12-08T06:25:22;95883.13;;;-0.98;nan
34328;BME280;20588;48.840;10.064;2022-12-08T06:27:48;95880.16;;;-0.86;nan
34328;BME280;20588;48.840;10.064;2022-12-08T06:30:15;95881.59;;;-0.83;nan
34328;BME280;20588;48.840;10.064;2022-12-08T06:32:41;95880.66;;;-0.82;nan
34328;BME280;20588;48.840;10.064;2022-12-08T06:35:07;95879.22;;;-0.85;nan
34328;BME280;20588;48.840;10.064;2022-12-08T06:37:34;95884.41;;;-0.86;nan
34328;BME280;20588;48.840;10.064;2022-12-08T06:40:00;95881.91;;;-0.94;nan
34328;BME280;20588;48.840;10.064;2022-12-08T06:42:26;95887.09;;;-1.04;nan
34328;BME280;20588;48.840;10.064;2022-12-08T06:45:13;95891.63;;;-1.15;nan
34328;BME280;20588;48.840;10.064;2022-12-08T06:47:40;95887.97;;;-1.21;nan
34328;BME280;20588;48.840;10.064;2022-12-08T06:50:08;95885.28;;;-1.27;nan
34328;BME280;20588;48.840;10.064;2022-12-08T06:52:35;95888.28;;;-1.32;nan
34328;BME280;20588;48.840;10.064;2022-12-08T06:55:01;95891.25;;;-1.36;nan
34328;BME280;20588;48.840;10.064;2022-12-08T06:57:27;95883.34;;;-1.41;nan
34328;BME280;20588;48.840;10.064;2022-12-08T06:59:53;95890.41;;;-1.45;nan
34328;BME280;20588;48.840;10.064;2022-12-08T07:02:19;95890.88;;;-1.49;nan
34328;BME280;20588;48.840;10.064;2022-12-08T07:04:45;95886.13;;;-1.52;nan
34328;BME280;20588;48.840;10.064;2022-12-08T07:07:11;95888.81;;;-1.54;nan
34328;BME280;20588;48.840;10.064;2022-12-08T07:09:37;95888.97;;;-1.55;nan
34328;BME280;20588;48.840;10.064;2022-12-08T07:12:04;95887.38;;;-1.56;nan
34328;BME280;20588;48.840;10.064;2022-12-08T07:14:30;95891.63;;;-1.57;nan
34328;BME280;20588;48.840;10.064;2022-12-08T07:16:56;95892.72;;;-1.59;nan
34328;BME280;20588;48.840;10.064;2022-12-08T07:19:22;95896.63;;;-1.65;nan
34328;BME280;20588;48.840;10.064;2022-12-08T07:21:48;95888.44;;;-1.67;nan
34328;BME280;20588;48.840;10.064;2022-12-08T07:24:14;95892.03;;;-1.69;nan
34328;BME280;20588;48.840;10.064;2022-12-08T07:26:40;95887.00;;;-1.69;nan
34328;BME280;20588;48.840;10.064;2022-12-08T07:29:08;95887.81;;;-1.69;nan
34328;BME280;20588;48.840;10.064;2022-12-08T07:31:34;95890.66;;;-1.64;nan
34328;BME280;20588;48.840;10.064;2022-12-08T07:34:00;95890.22;;;-1.59;nan
34328;BME280;20588;48.840;10.064;2022-12-08T07:36:26;95890.38;;;-1.53;nan
34328;BME280;20588;48.840;10.064;2022-12-08T07:38:52;95891.53;;;-1.47;nan
34328;BME280;20588;48.840;10.064;2022-12-08T07:41:21;95898.47;;;-1.41;nan
34328;BME280;20588;48.840;10.064;2022-12-08T07:43:48;95891.88;;;-1.34;nan
34328;BME280;20588;48.840;10.064;2022-12-08T07:46:16;95890.50;;;-1.29;nan
34328;BME280;20588;48.840;10.064;2022-12-08T07:48:43;95893.66;;;-1.19;nan
34328;BME280;20588;48.840;10.064;2022-12-08T07:51:11;95886.44;;;-1.14;nan
34328;BME280;20588;48.840;10.064;2022-12-08T07:53:39;95890.41;;;-1.03;nan
34328;BME280;20588;48.840;10.064;2022-12-08T07:56:06;95889.34;;;-0.77;nan
34328;BME280;20588;48.840;10.064;2022-12-08T07:58:32;95881.47;;;-0.66;nan
34328;BME280;20588;48.840;10.064;2022-12-08T08:00:58;95880.84;;;-0.60;nan
34328;BME280;20588;48.840;10.064;2022-12-08T08:03:25;95885.75;;;-0.50;nan
34328;BME280;20588;48.840;10.064;2022-12-08T08:05:51;95882.56;;;-0.28;nan
34328;BME280;20588;48.840;10.064;2022-12-08T08:08:17;95879.53;;;0.09;nan
34328;BME280;20588;48.840;10.064;2022-12-08T08:10:44;95875.16;;;0.41;nan
34328;BME280;20588;48.840;10.064;2022-12-08T08:13:11;95875.84;;;0.66;nan
34328;BME280;20588;48.840;10.064;2022-12-08T08:15:37;95877.19;;;0.84;nan
34328;BME280;20588;48.840;10.064;2022-12-08T08:18:03;95878.84;;;1.00;nan
34328;BME280;20588;48.840;10.064;2022-12-08T08:20:29;95876.84;;;1.18;nan
34328;BME280;20588;48.840;10.064;2022-12-08T08:22:55;95877.44;;;1.42;nan
34328;BME280;20588;48.840;10.064;2022-12-08T08:25:22;95875.41;;;1.83;nan
34328;BME280;20588;48.840;10.064;2022-12-08T08:27:48;95876.16;;;2.21;nan
34328;BME280;20588;48.840;10.064;2022-12-08T08:30:15;95873.47;;;2.87;nan
34328;BME280;20588;48.840;10.064;2022-12-08T08:32:42;95871.72;;;3.44;nan
34328;BME280;20588;48.840;10.064;2022-12-08T08:35:09;95864.53;;;3.96;nan
34328;BME280;20588;48.840;10.064;2022-12-08T08:37:35;95870.09;;;4.40;nan
34328;BME280;20588;48.840;10.064;2022-12-08T08:40:01;95864.16;;;5.21;nan
34328;BME280;20588;48.840;10.064;2022-12-08T08:42:27;95899.72;;;6.72;nan
34328;BME280;20588;48.840;10.064;2022-12-08T08:44:53;95863.81;;;8.59;nan
34328;BME280;20588;48.840;10.064;2022-12-08T08:47:19;95864.19;;;9.69;nan
34328;BME280;20588;48.840;10.064;2022-12-08T08:52:11;95888.41;;;12.84;nan
34328;BME280;20588;48.840;10.064;2022-12-08T08:54:37;95851.22;;;14.12;nan
34328;BME280;20588;48.840;10.064;2022-12-08T08:57:04;95862.06;;;15.74;nan
34328;BME280;20588;48.840;10.064;2022-12-08T08:59:30;95843.00;;;16.89;nan
34328;BME280;20588;48.840;10.064;2022-12-08T09:01:56;95846.94;;;17.45;nan
34328;BME280;20588;48.840;10.064;2022-12-08T09:04:22;95845.47;;;17.68;nan
34328;BME280;20588;48.840;10.064;2022-12-08T09:06:48;95837.94;;;18.39;nan
34328;BME280;20588;48.840;10.064;2022-12-08T09:09:15;95837.34;;;19.12;nan
34328;BME280;20588;48.840;10.064;2022-12-08T09:11:42;95824.75;;;19.75;nan
34328;BME280;20588;48.840;10.064;2022-12-08T09:14:11;95824.72;;;20.44;nan
34328;BME280;20588;48.840;10.064;2022-12-08T09:16:37;95823.56;;;20.91;nan
34328;BME280;20588;48.840;10.064;2022-12-08T09:19:03;95826.94;;;21.32;nan
34328;BME280;20588;48.840;10.064;2022-12-08T09:21:29;95825.41;;;21.31;nan
34328;BME280;20588;48.840;10.064;2022-12-08T09:23:57;95815.94;;;21.43;nan
34328;BME280;20588;48.840;10.064;2022-12-08T09:26:26;95809.94;;;22.01;nan
34328;BME280;20588;48.840;10.064;2022-12-08T09:28:54;95814.81;;;22.46;nan
34328;BME280;20588;48.840;10.064;2022-12-08T09:31:21;95810.34;;;22.77;nan
34328;BME280;20588;48.840;10.064;2022-12-08T09:33:48;95820.19;;;23.20;nan
34328;BME280;20588;48.840;10.064;2022-12-08T09:36:18;95816.75;;;23.10;nan
34328;BME280;20588;48.840;10.064;2022-12-08T09:38:44;95814.31;;;23.14;nan
34328;BME280;20588;48.840;10.064;2022-12-08T09:41:31;95814.69;;;23.47;nan
34328;BME280;20588;48.840;10.064;2022-12-08T09:46:47;95811.75;;;23.99;nan
34328;BME280;20588;48.840;10.064;2022-12-08T09:49:19;95811.91;;;24.03;nan
34328;BME280;20588;48.840;10.064;2022-12-08T09:51:47;95801.84;;;24.05;nan
34328;BME280;20588;48.840;10.064;2022-12-08T09:54:32;95792.69;;;24.28;nan
34328;BME280;20588;48.840;10.064;2022-12-08T09:57:02;95796.88;;;24.66;nan
34328;BME280;20588;48.840;10.064;2022-12-08T09:59:33;95789.63;;;24.55;nan
34328;BME280;20588;48.840;10.064;2022-12-08T10:02:01;95785.13;;;24.55;nan
34328;BME280;20588;48.840;10.064;2022-12-08T10:04:45;95777.44;;;24.79;nan
34328;BME280;20588;48.840;10.064;2022-12-08T10:07:30;95775.75;;;25.13;nan
34328;BME280;20588;48.840;10.064;2022-12-08T10:10:03;95767.75;;;25.01;nan
34328;BME280;20588;48.840;10.064;2022-12-08T10:12:58;95764.78;;;25.52;nan
34328;BME280;20588;48.840;10.064;2022-12-08T10:15:57;95760.06;;;24.87;nan
34328;BME280;20588;48.840;10.064;2022-12-08T10:18:28;95758.06;;;24.09;nan
34328;BME280;20588;48.840;10.064;2022-12-08T10:21:19;95764.28;;;24.42;nan
34328;BME280;20588;48.840;10.064;2022-12-08T10:23:49;95753.53;;;24.55;nan
34328;BME280;20588;48.840;10.064;2022-12-08T10:26:18;95745.50;;;24.90;nan
34328;BME280;20588;48.840;10.064;2022-12-08T10:28:45;95746.16;;;25.07;nan
34328;BME280;20588;48.840;10.064;2022-12-08T10:31:20;95745.09;;;25.29;nan
34328;BME280;20588;48.840;10.064;2022-12-08T10:33:51;95739.56;;;25.42;nan
34328;BME280;20588;48.840;10.064;2022-12-08T10:36:19;95735.50;;;25.24;nan
34328;BME280;20588;48.840;10.064;2022-12-08T10:38:45;95739.22;;;25.64;nan
34328;BME280;20588;48.840;10.064;2022-12-08T10:41:12;95731.47;;;25.80;nan
34328;BME280;20588;48.840;10.064;2022-12-08T10:43:46;95730.16;;;26.06;nan
34328;BME280;20588;48.840;10.064;2022-12-08T10:48:50;95735.69;;;26.25;nan
34328;BME280;20588;48.840;10.064;2022-12-08T10:54:01;95730.00;;;26.84;nan
34328;BME280;20588;48.840;10.064;2022-12-08T10:56:29;95724.41;;;26.73;nan
34328;BME280;20588;48.840;10.064;2022-12-08T10:59:17;95718.72;;;26.26;nan
34328;BME280;20588;48.840;10.064;2022-12-08T11:01:48;95713.69;;;24.74;nan
34328;BME280;20588;48.840;10.064;2022-12-08T11:04:20;95711.06;;;24.74;nan
34328;BME280;20588;48.840;10.064;2022-12-08T11:06:49;95707.16;;;25.21;nan
34328;BME280;20588;48.840;10.064;2022-12-08T11:11:51;95695.03;;;22.25;nan
34328;BME280;20588;48.840;10.064;2022-12-08T11:14:23;95695.75;;;20.84;nan
34328;BME280;20588;48.840;10.064;2022-12-08T11:16:52;95687.25;;;20.79;nan
34328;BME280;20588;48.840;10.064;2022-12-08T11:19:21;95683.59;;;20.53;nan
34328;BME280;20588;48.840;10.064;2022-12-08T11:21:50;95682.34;;;20.64;nan
34328;BME280;20588;48.840;10.064;2022-12-08T11:24:24;95673.63;;;21.48;nan
34328;BME280;20588;48.840;10.064;2022-12-08T11:29:19;95671.88;;;22.27;nan
34328;BME280;20588;48.840;10.064;2022-12-08T11:32:12;95673.44;;;22.84;nan
34328;BME280;20588;48.840;10.064;2022-12-08T11:34:50;95664.97;;;23.93;nan
34328;BME280;20588;48.840;10.064;2022-12-08T11:37:27;95667.06;;;23.62;nan
34328;BME280;20588;48.840;10.064;2022-12-08T11:39:58;95670.59;;;23.74;nan
34328;BME280;20588;48.840;10.064;2022-12-08T11:42:30;95663.72;;;23.27;nan
34328;BME280;20588;48.840;10.064;2022-12-08T11:45:04;95664.16;;;20.94;nan
34328;BME280;20588;48.840;10.064;2022-12-08T11:48:00;95661.94;;;18.23;nan
34328;BME280;20588;48.840;10.064;2022-12-08T11:50:32;95654.44;;;16.04;nan
34328;BME280;20588;48.840;10.064;2022-12-08T11:53:03;95661.66;;;14.27;nan
34328;BME280;20588;48.840;10.064;2022-12-08T11:56:05;95667.97;;;12.63;nan
34328;BME280;20588;48.840;10.064;2022-12-08T11:58:49;95672.59;;;11.58;nan
34328;BME280;20588;48.840;10.064;2022-12-08T12:01:22;95669.59;;;10.67;nan
34328;BME280;20588;48.840;10.064;2022-12-08T12:04:13;95676.41;;;9.94;nan
34328;BME280;20588;48.840;10.064;2022-12-08T12:09:56;95664.13;;;8.92;nan
34328;BME280;20588;48.840;10.064;2022-12-08T12:18:48;95661.97;;;7.64;nan
34328;BME280;20588;48.840;10.064;2022-12-08T12:21:23;95667.72;;;7.42;nan
34328;BME280;20588;48.840;10.064;2022-12-08T12:24:00;95674.34;;;7.24;nan
34328;BME280;20588;48.840;10.064;2022-12-08T12:26:32;95662.88;;;7.09;nan
34328;BME280;20588;48.840;10.064;2022-12-08T12:29:11;95673.78;;;6.98;nan
34328;BME280;20588;48.840;10.064;2022-12-08T12:31:46;95662.91;;;6.78;nan
34328;BME280;20588;48.840;10.064;2022-12-08T12:34:23;95663.78;;;6.65;nan
34328;BME280;20588;48.840;10.064;2022-12-08T12:36:57;95665.41;;;6.60;nan
34328;BME280;20588;48.840;10.064;2022-12-08T12:42:40;95660.03;;;6.30;nan
34328;BME280;20588;48.840;10.064;2022-12-08T12:47:49;95668.19;;;6.14;nan
34328;BME280;20588;48.840;10.064;2022-12-08T12:56:00;95652.38;;;5.86;nan
34328;BME280;20588;48.840;10.064;2022-12-08T13:03:41;95636.88;;;5.75;nan
34328;BME280;20588;48.840;10.064;2022-12-08T13:06:09;95640.03;;;5.77;nan
34328;BME280;20588;48.840;10.064;2022-12-08T13:08:39;95637.88;;;5.74;nan
34328;BME280;20588;48.840;10.064;2022-12-08T13:11:08;95641.81;;;5.70;nan
34328;BME280;20588;48.840;10.064;2022-12-08T13:13:54;95635.94;;;5.63;nan
34328;BME280;20588;48.840;10.064;2022-12-08T13:16:23;95628.31;;;5.56;nan
34328;BME280;20588;48.840;10.064;2022-12-08T13:18:55;95629.75;;;5.39;nan
34328;BME280;20588;48.840;10.064;2022-12-08T13:21:23;95629.16;;;5.37;nan
34328;BME280;20588;48.840;10.064;2022-12-08T13:24:12;95626.19;;;5.46;nan
34328;BME280;20588;48.840;10.064;2022-12-08T13:27:35;95628.69;;;5.66;nan
34328;BME280;20588;48.840;10.064;2022-12-08T13:29:37;95618.22;;;5.94;nan
34328;BME280;20588;48.840;10.064;2022-12-08T13:35:08;95618.00;;;6.33;nan
34328;BME280;20588;48.840;10.064;2022-12-08T13:37:46;95623.13;;;6.26;nan
34328;BME280;20588;48.840;10.064;2022-12-08T13:40:26;95619.66;;;6.14;nan
34328;BME280;20588;48.840;10.064;2022-12-08T13:43:17;95620.66;;;6.13;nan
34328;BME280;20588;48.840;10.064;2022-12-08T13:45:46;95625.16;;;6.18;nan
34328;BME280;20588;48.840;10.064;2022-12-08T13:48:31;95622.63;;;6.11;nan
34328;BME280;20588;48.840;10.064;2022-12-08T13:51:09;95618.13;;;6.13;nan
34328;BME280;20588;48.840;10.064;2022-12-08T13:53:40;95618.72;;;6.09;nan
34328;BME280;20588;48.840;10.064;2022-12-08T13:56:11;95622.13;;;5.96;nan
34328;BME280;20588;48.840;10.064;2022-12-08T13:58:38;95626.88;;;5.73;nan
34328;BME280;20588;48.840;10.064;2022-12-08T14:01:12;95622.03;;;5.58;nan
34328;BME280;20588;48.840;10.064;2022-12-08T14:03:51;95623.41;;;5.54;nan
34328;BME280;20588;48.840;10.064;2022-12-08T14:06:28;95622.06;;;5.45;nan
34328;BME280;20588;48.840;10.064;2022-12-08T14:08:57;95615.81;;;5.35;nan
34328;BME280;20588;48.840;10.064;2022-12-08T14:14:17;95608.78;;;5.11;nan
34328;BME280;20588;48.840;10.064;2022-12-08T14:17:05;95616.47;;;4.98;nan
34328;BME280;20588;48.840;10.064;2022-12-08T14:19:33;95626.06;;;4.89;nan
34328;BME280;20588;48.840;10.064;2022-12-08T14:22:15;95615.88;;;4.63;nan
34328;BME280;20588;48.840;10.064;2022-12-08T14:24:45;95623.69;;;4.49;nan
34328;BME280;20588;48.840;10.064;2022-12-08T14:27:15;95618.19;;;4.39;nan
34328;BME280;20588;48.840;10.064;2022-12-08T14:29:49;95613.69;;;4.34;nan
34328;BME280;20588;48.840;10.064;2022-12-08T14:37:45;95612.63;;;4.09;nan
34328;BME280;20588;48.840;10.064;2022-12-08T14:40:19;95614.59;;;4.01;nan
34328;BME280;20588;48.840;10.064;2022-12-08T14:42:52;95617.72;;;3.96;nan
34328;BME280;20588;48.840;10.064;2022-12-08T14:45:19;95620.22;;;3.90;nan